Terminal Aerodrome Forecast
Issued by NWS

Home | Current Version | Previous Version | Graphics & Text | Print | Product List | Glossary On
Versions: 1 2 3 4 5 6 7 8 9 10 11 12 13 14 15 16 17 18
000
FTUS43 KTOP 220500
TAFFOE
TAF
KFOE 220525Z 2206/2306 35007KT P6SM FEW050 BKN150
     FM221000 36007KT P6SM BKN025 BKN150
     FM222000 VRB05KT P6SM SCT025=

USA.gov is the U.S. government's official web portal to all federal, state and local government web resources and services.